Marianna, AR (72360)

5:04 AM CDT on July 11, 2014 (GMT -0500)
marianna,arrkansas (KARMARIA2) Elev 230 ft | 34.77 °N, 90.77 °W | Change Station

Current weather conditions updated 2 minutes ago

Clear
Clear
73.8 °F
Feels Like 72 °F
N
0.0
Wind Variable Wind from NW

Today is forecast to be nearly the same temperature as yesterday.

Today
High -- | Low -- °F
--% Chance of Precip.
Yesterday
High -- | Low -- °F
Precip. -- in
5:58 AM 8:18 PM
Waxing Gibbous, 98% visible
Pressure 30.09 in
Visibility 10.0 miles
Clouds Clear
Heat Index 72 °F
Dew Point 71 °F
Humidity 91%
Rainfall 0.00 in
Snow Depth Not available.
UV 0 out of 12
Pollen 2.90 out of 12
Air Quality Not available.
Flu Activity No Activity
METAR KUTA 110955Z AUTO 06004KT 10SM CLR 23/21 A3009 RMK AO2

More Conditions Fewer Conditions

Pressure 30.09 in
Visibility 10.0 miles
Clouds Clear
Heat Index 72 °F
Dew Point 71 °F
Humidity 91%
Rainfall 0.00 in
Snow Depth Not available.
UV 0 out of 12
Pollen 2.90 out of 12
Air Quality Not available.
Flu Activity No Activity
METAR KUTA 110955Z AUTO 06004KT 10SM CLR 23/21 A3009 RMK AO2

More Conditions Fewer Conditions

10-Day Weather Forecast

Almanac

Astronomy

Jul. 11, 2014 Rise Set
Actual Time 5:58 AM CDT 8:18 PM CDT
Civil Twilight 5:29 AM CDT 8:47 PM CDT
Nautical Twilight 4:53 AM CDT 9:23 PM CDT
Astronomical Twilight 4:14 AM CDT 10:01 PM CDT
Moon 7:31 PM CDT 5:08 AM CDT
Length of Visible Light 15h 17m
Length of Day
14h 19m
Tomorrow will be 0m 57s shorter.
Waxing Gibbous, 98% of the Moon is Illuminated
Today
Waxing Gibbous
Jul 12
Full
Jul 18
Last Quarter
Jul 26
New
Aug 3
First Quarter

Today's Extremes

State Highs State Lows

Community

WunderPhotos

Upload Photos

1,732,401 photos uploaded!

WunderBlogs® & News

Nearby

Snow Depth

Station Depth Elevation
No new snow has been reported.

Earthquake Activity

City Distance Mag. Time & Date
Malden, Missouri 130 miles 2.8 8:41 AM CDT
2014-07-04
Minimum magnitude displayed is 2.5.

Coastal Water Temperatures

Place Temperature
No Stations Reporting

Nearby Weather Stations

Station Location Temp. Heat Index Dew Point Humidity Wind Precip. Elev Updated Type
marianna,arrkansas, Marianna, AR 73.8 °F 72 °F 71 °F 91% NW  at  0.0 mph - / hr 230 ft 5:01 AM CDT Normal
MesoWest BECKS , Madison, AR 82 °F 80 °F - - North  at  - 0.00 in / hr 219 ft 2:25 AM CDT MADIS
MesoWest TUNICA , Tunica, MS 74 °F 72 °F 72 °F 93% ENE  at  1 mph 0.00 in / hr 259 ft 4:00 AM CDT MADIS
MesoWest RNDPND , Widener, AR 76 °F 74 °F - - North  at  - 0.00 in / hr 210 ft 3:55 AM CDT MADIS
MesoWest WHTLEY , Wheatley, AR 73 °F 71 °F - - North  at  - 0.00 in / hr 208 ft 2:45 AM CDT MADIS

Show More Stations Show Fewer Stations